Laredo International, TX

7:57 PM CDT en Julio 29, 2014 (GMT -0500)
Cotulla-La Salle County (KCOT) Alt 476 ft | 28.46 °N, 99.22 °W | Change Station
Aviso en curso: Special Statement Aviso activo: Record Report

Current weather conditions updated 4 minutes ago

Clear
Despejado
98 ° F
Sensación térmica 98 ° F
N
9
Viento Variable Viento desde ESE

Mañana se prevé un día Más cálido que hoy.

Hoy
Alta -- | Baja -- ° F
--% Posibilidad de precipitaciones
Ayer
Alta -- | Baja -- ° F
Precip. -- pul
6:59 AM 8:28 PM
Creciente, 8% visible
Presión 29.92 pul
Visibilidad 10.0 Millas
Nubes Despejado
Punto de rocío 52 ° F
Humedad 21%
Precipitaciones 0.00 pul
Espesor de la nieve No disponible.
UV 0 de una escala de 12
Polen 7.40 de una escala de 12
Ozono Buena
PM2.5 Buena
Flu Activity No disponible.
METAR KCOT 300053Z AUTO 12008KT 10SM CLR 37/11 A2995 RMK AO2 SLP132 T03670111

More Conditions Fewer Conditions

Presión 29.92 pul
Visibilidad 10.0 Millas
Nubes Despejado
Punto de rocío 52 ° F
Humedad 21%
Precipitaciones 0.00 pul
Espesor de la nieve No disponible.
UV 0 de una escala de 12
Polen 7.40 de una escala de 12
Ozono Buena
PM2.5 Buena
Flu Activity No disponible.
METAR KCOT 300053Z AUTO 12008KT 10SM CLR 37/11 A2995 RMK AO2 SLP132 T03670111

More Conditions Fewer Conditions

10-Day Weather Forecast

Almanac

Astronomía

Jul. 29, 2014 Salida Puesta
Hora real 6:59 AM CDT 8:28 PM CDT
Crepúsculo civil 6:34 AM CDT 8:53 PM CDT
Crepúsculo náutico 6:03 AM CDT 9:24 PM CDT
Crepúsculo astronómico 5:32 AM CDT 9:55 PM CDT
Luna 9:19 AM CDT (7/29) 10:02 PM CDT (7/29)
Horas de luz 14h 19m
Horas de luz
13h 29m
Tomorrow will be 1m 10s shorter.
Creciente, 8% of the Moon is Illuminated
Hoy
Creciente
Ago 3
Cuarto creciente
Ago 10
Luna llena
Ago 17
Cuarto menguante
Ago 25
Nueva

Extremos de hoy

Máximos del estado Bajos del estado

Community

WunderPhotos

Upload Photos

1,738,924 ¡fotos cargadas!

Nearby

Calidad del aire

  Calidad del aire Índice AQ Contaminante
Ayer Moderada
PM2.5
Ayer Buena
OZONE
Real Buena
PM2.5
Real Buena
OZONE
Martes Buena
PM10
Martes Buena
OZONE
Miércoles Buena
PM10
Miércoles Buena
OZONE
Jueves Buena
PM10
Jueves Buena
OZONE
Viernes Buena
PM10
Viernes Buena
OZONE

Grosos de nieve

Estación Profundido Altura
No tenemos constancia de nieve nueva.

Actividad de terremotos

Ciudad Distance Mag. Tiempo y dato
No hay informes recientes de la actividad sísmica.
Magnitud mínima muestra es 2,5.

Temperaturas de aguas costeras

Lugar Temperatura
Sin partes meteorológicos de las estaciones

Estaciones meteorológicas cercanas

Ubicación de la estación Temp. Índice de calor Punto de rocío Humedad Viento Precip. Alt Actualizado Tipo
Del Mar C, Laredo, TX 99.7 ° F 97 ° F 53 ° F 21% ESE  a  9.2 mph 0.00 pul / hr 489 ft 7:57 PM CDT Rapid Fire
Werner Ent. Laredo, Laredo, TX 98.1 ° F 97 ° F 58 ° F 26% NE  a  7.0 mph 0.00 pul / hr 694 ft 7:52 PM CDT Normal

Show More Stations Show Fewer Stations